sensor_id;sensor_type;location;lat;lon;timestamp;P1;durP1;ratioP1;P2;durP2;ratioP2
5979;SDS011;3016;50.308;8.258;2023-05-20T00:02:26;17.40;;;2.70;;
5979;SDS011;3016;50.308;8.258;2023-05-20T00:05:27;16.83;;;2.77;;
5979;SDS011;3016;50.308;8.258;2023-05-20T00:08:28;16.20;;;2.40;;
5979;SDS011;3016;50.308;8.258;2023-05-20T00:11:29;17.07;;;2.93;;
5979;SDS011;3016;50.308;8.258;2023-05-20T00:14:29;18.80;;;2.70;;
5979;SDS011;3016;50.308;8.258;2023-05-20T00:17:30;16.67;;;2.50;;
5979;SDS011;3016;50.308;8.258;2023-05-20T00:20:31;16.20;;;2.23;;
5979;SDS011;3016;50.308;8.258;2023-05-20T00:23:32;16.50;;;2.70;;
5979;SDS011;3016;50.308;8.258;2023-05-20T00:26:32;16.60;;;2.43;;
5979;SDS011;3016;50.308;8.258;2023-05-20T00:29:33;17.20;;;2.70;;
5979;SDS011;3016;50.308;8.258;2023-05-20T00:32:34;17.20;;;2.90;;
5979;SDS011;3016;50.308;8.258;2023-05-20T00:35:35;18.50;;;3.30;;
5979;SDS011;3016;50.308;8.258;2023-05-20T00:38:35;16.63;;;3.40;;
5979;SDS011;3016;50.308;8.258;2023-05-20T00:41:36;16.90;;;2.57;;
5979;SDS011;3016;50.308;8.258;2023-05-20T00:44:37;17.30;;;3.00;;
5979;SDS011;3016;50.308;8.258;2023-05-20T00:47:38;16.47;;;2.37;;
5979;SDS011;3016;50.308;8.258;2023-05-20T00:50:39;18.17;;;3.57;;
5979;SDS011;3016;50.308;8.258;2023-05-20T00:53:40;15.97;;;2.60;;
5979;SDS011;3016;50.308;8.258;2023-05-20T00:56:41;17.80;;;2.83;;
5979;SDS011;3016;50.308;8.258;2023-05-20T00:59:42;16.73;;;2.83;;
5979;SDS011;3016;50.308;8.258;2023-05-20T01:02:43;15.80;;;2.40;;
5979;SDS011;3016;50.308;8.258;2023-05-20T01:05:43;18.53;;;2.87;;
5979;SDS011;3016;50.308;8.258;2023-05-20T01:08:44;17.67;;;3.10;;
5979;SDS011;3016;50.308;8.258;2023-05-20T01:11:55;17.20;;;3.00;;
5979;SDS011;3016;50.308;8.258;2023-05-20T01:15:06;17.37;;;3.30;;
5979;SDS011;3016;50.308;8.258;2023-05-20T01:18:09;17.30;;;3.00;;
5979;SDS011;3016;50.308;8.258;2023-05-20T01:21:17;21.03;;;3.13;;
5979;SDS011;3016;50.308;8.258;2023-05-20T01:24:18;19.53;;;3.77;;
5979;SDS011;3016;50.308;8.258;2023-05-20T01:27:19;16.60;;;2.93;;
5979;SDS011;3016;50.308;8.258;2023-05-20T01:30:21;18.07;;;2.90;;
5979;SDS011;3016;50.308;8.258;2023-05-20T01:33:27;17.53;;;3.10;;
5979;SDS011;3016;50.308;8.258;2023-05-20T01:36:29;17.47;;;2.73;;
5979;SDS011;3016;50.308;8.258;2023-05-20T01:39:32;17.83;;;3.47;;
5979;SDS011;3016;50.308;8.258;2023-05-20T01:42:36;16.83;;;2.93;;
5979;SDS011;3016;50.308;8.258;2023-05-20T01:45:40;17.97;;;3.50;;
5979;SDS011;3016;50.308;8.258;2023-05-20T01:48:41;16.77;;;2.87;;
5979;SDS011;3016;50.308;8.258;2023-05-20T01:51:42;17.17;;;3.20;;
5979;SDS011;3016;50.308;8.258;2023-05-20T01:54:42;16.77;;;3.00;;
5979;SDS011;3016;50.308;8.258;2023-05-20T01:57:49;17.13;;;3.20;;
5979;SDS011;3016;50.308;8.258;2023-05-20T02:00:50;17.40;;;3.60;;
5979;SDS011;3016;50.308;8.258;2023-05-20T02:03:51;17.37;;;3.27;;
5979;SDS011;3016;50.308;8.258;2023-05-20T02:06:52;20.13;;;3.30;;
5979;SDS011;3016;50.308;8.258;2023-05-20T02:09:52;19.80;;;3.30;;
5979;SDS011;3016;50.308;8.258;2023-05-20T02:12:53;16.83;;;2.80;;
5979;SDS011;3016;50.308;8.258;2023-05-20T02:15:54;18.73;;;3.50;;
5979;SDS011;3016;50.308;8.258;2023-05-20T02:18:54;17.30;;;3.40;;
5979;SDS011;3016;50.308;8.258;2023-05-20T02:21:57;18.40;;;3.40;;
5979;SDS011;3016;50.308;8.258;2023-05-20T02:24:58;18.50;;;4.07;;
5979;SDS011;3016;50.308;8.258;2023-05-20T02:27:58;26.27;;;3.70;;
5979;SDS011;3016;50.308;8.258;2023-05-20T02:30:59;21.30;;;4.20;;
5979;SDS011;3016;50.308;8.258;2023-05-20T02:34:00;17.23;;;3.30;;
5979;SDS011;3016;50.308;8.258;2023-05-20T02:37:00;17.27;;;3.60;;
5979;SDS011;3016;50.308;8.258;2023-05-20T02:40:01;18.57;;;3.67;;
5979;SDS011;3016;50.308;8.258;2023-05-20T02:43:02;17.40;;;3.27;;
5979;SDS011;3016;50.308;8.258;2023-05-20T02:46:03;17.97;;;4.00;;
5979;SDS011;3016;50.308;8.258;2023-05-20T02:49:03;16.80;;;3.60;;
5979;SDS011;3016;50.308;8.258;2023-05-20T02:52:04;19.00;;;4.10;;
5979;SDS011;3016;50.308;8.258;2023-05-20T02:55:05;17.47;;;3.80;;
5979;SDS011;3016;50.308;8.258;2023-05-20T02:58:07;18.63;;;4.17;;
5979;SDS011;3016;50.308;8.258;2023-05-20T03:01:07;17.43;;;3.53;;
5979;SDS011;3016;50.308;8.258;2023-05-20T03:04:08;19.03;;;3.63;;
5979;SDS011;3016;50.308;8.258;2023-05-20T03:07:08;19.10;;;4.60;;
5979;SDS011;3016;50.308;8.258;2023-05-20T03:10:09;17.30;;;3.77;;
5979;SDS011;3016;50.308;8.258;2023-05-20T03:13:10;22.60;;;4.67;;
5979;SDS011;3016;50.308;8.258;2023-05-20T03:16:11;17.80;;;3.70;;
5979;SDS011;3016;50.308;8.258;2023-05-20T03:19:12;16.90;;;3.53;;
5979;SDS011;3016;50.308;8.258;2023-05-20T03:22:12;19.40;;;4.70;;
5979;SDS011;3016;50.308;8.258;2023-05-20T03:25:13;18.63;;;3.90;;
5979;SDS011;3016;50.308;8.258;2023-05-20T03:28:14;22.33;;;3.83;;
5979;SDS011;3016;50.308;8.258;2023-05-20T03:31:14;16.97;;;3.37;;
5979;SDS011;3016;50.308;8.258;2023-05-20T03:34:16;18.10;;;3.70;;
5979;SDS011;3016;50.308;8.258;2023-05-20T03:37:17;17.03;;;3.53;;
5979;SDS011;3016;50.308;8.258;2023-05-20T03:40:17;17.83;;;3.80;;
5979;SDS011;3016;50.308;8.258;2023-05-20T03:43:22;18.70;;;4.23;;
5979;SDS011;3016;50.308;8.258;2023-05-20T03:46:24;18.03;;;3.50;;
5979;SDS011;3016;50.308;8.258;2023-05-20T03:49:24;17.90;;;3.90;;
5979;SDS011;3016;50.308;8.258;2023-05-20T03:52:25;17.70;;;4.10;;
5979;SDS011;3016;50.308;8.258;2023-05-20T03:55:26;18.03;;;4.17;;
5979;SDS011;3016;50.308;8.258;2023-05-20T03:58:27;17.57;;;3.47;;
5979;SDS011;3016;50.308;8.258;2023-05-20T04:01:28;20.70;;;3.80;;
5979;SDS011;3016;50.308;8.258;2023-05-20T04:04:28;17.90;;;3.70;;
5979;SDS011;3016;50.308;8.258;2023-05-20T04:07:29;18.87;;;4.73;;
5979;SDS011;3016;50.308;8.258;2023-05-20T04:10:30;18.90;;;3.97;;
5979;SDS011;3016;50.308;8.258;2023-05-20T04:13:32;17.27;;;3.67;;
5979;SDS011;3016;50.308;8.258;2023-05-20T04:16:33;17.30;;;3.50;;
5979;SDS011;3016;50.308;8.258;2023-05-20T04:19:34;21.20;;;4.67;;
5979;SDS011;3016;50.308;8.258;2023-05-20T04:22:35;20.90;;;3.70;;
5979;SDS011;3016;50.308;8.258;2023-05-20T04:25:36;17.40;;;3.53;;
5979;SDS011;3016;50.308;8.258;2023-05-20T04:28:37;17.87;;;3.67;;
5979;SDS011;3016;50.308;8.258;2023-05-20T04:31:40;18.43;;;3.97;;
5979;SDS011;3016;50.308;8.258;2023-05-20T04:34:41;19.73;;;3.60;;
5979;SDS011;3016;50.308;8.258;2023-05-20T04:37:44;17.60;;;3.77;;
5979;SDS011;3016;50.308;8.258;2023-05-20T04:40:46;17.47;;;4.10;;
5979;SDS011;3016;50.308;8.258;2023-05-20T04:43:47;17.83;;;3.90;;
5979;SDS011;3016;50.308;8.258;2023-05-20T04:46:48;18.40;;;4.37;;
5979;SDS011;3016;50.308;8.258;2023-05-20T04:49:49;19.83;;;4.07;;
5979;SDS011;3016;50.308;8.258;2023-05-20T04:52:50;18.07;;;4.40;;
5979;SDS011;3016;50.308;8.258;2023-05-20T04:55:53;16.53;;;3.63;;
5979;SDS011;3016;50.308;8.258;2023-05-20T04:58:55;17.90;;;4.10;;
5979;SDS011;3016;50.308;8.258;2023-05-20T05:01:57;23.10;;;4.60;;
5979;SDS011;3016;50.308;8.258;2023-05-20T05:04:58;19.73;;;4.43;;
5979;SDS011;3016;50.308;8.258;2023-05-20T05:07:58;17.67;;;4.70;;
5979;SDS011;3016;50.308;8.258;2023-05-20T05:10:59;19.40;;;4.90;;
5979;SDS011;3016;50.308;8.258;2023-05-20T05:14:00;19.63;;;4.70;;
5979;SDS011;3016;50.308;8.258;2023-05-20T05:17:00;19.70;;;5.00;;
5979;SDS011;3016;50.308;8.258;2023-05-20T05:20:01;18.40;;;4.57;;
5979;SDS011;3016;50.308;8.258;2023-05-20T05:23:02;18.47;;;4.60;;
5979;SDS011;3016;50.308;8.258;2023-05-20T05:26:03;19.40;;;4.70;;
5979;SDS011;3016;50.308;8.258;2023-05-20T05:29:03;20.10;;;4.37;;
5979;SDS011;3016;50.308;8.258;2023-05-20T05:32:04;18.67;;;4.93;;
5979;SDS011;3016;50.308;8.258;2023-05-20T05:35:05;18.33;;;4.87;;
5979;SDS011;3016;50.308;8.258;2023-05-20T05:38:06;21.33;;;4.37;;
5979;SDS011;3016;50.308;8.258;2023-05-20T05:41:07;17.37;;;3.97;;
5979;SDS011;3016;50.308;8.258;2023-05-20T05:44:08;18.60;;;5.23;;
5979;SDS011;3016;50.308;8.258;2023-05-20T05:47:09;19.77;;;4.53;;
5979;SDS011;3016;50.308;8.258;2023-05-20T05:50:09;24.37;;;5.30;;
5979;SDS011;3016;50.308;8.258;2023-05-20T05:53:10;18.47;;;4.70;;
5979;SDS011;3016;50.308;8.258;2023-05-20T05:56:11;18.17;;;4.40;;
5979;SDS011;3016;50.308;8.258;2023-05-20T05:59:12;18.30;;;4.33;;
5979;SDS011;3016;50.308;8.258;2023-05-20T06:02:12;18.27;;;4.53;;
5979;SDS011;3016;50.308;8.258;2023-05-20T06:05:13;20.57;;;5.00;;
5979;SDS011;3016;50.308;8.258;2023-05-20T06:08:14;17.50;;;4.00;;
5979;SDS011;3016;50.308;8.258;2023-05-20T06:11:15;20.27;;;4.37;;
5979;SDS011;3016;50.308;8.258;2023-05-20T06:14:15;19.93;;;4.80;;
5979;SDS011;3016;50.308;8.258;2023-05-20T06:17:16;20.07;;;5.00;;
5979;SDS011;3016;50.308;8.258;2023-05-20T06:20:17;19.37;;;5.10;;
5979;SDS011;3016;50.308;8.258;2023-05-20T06:23:17;19.43;;;5.60;;
5979;SDS011;3016;50.308;8.258;2023-05-20T06:26:18;17.53;;;4.10;;
5979;SDS011;3016;50.308;8.258;2023-05-20T06:29:19;19.03;;;4.83;;
5979;SDS011;3016;50.308;8.258;2023-05-20T06:32:19;18.57;;;5.27;;
5979;SDS011;3016;50.308;8.258;2023-05-20T06:35:20;20.53;;;6.03;;
5979;SDS011;3016;50.308;8.258;2023-05-20T06:38:21;19.53;;;5.60;;
5979;SDS011;3016;50.308;8.258;2023-05-20T06:41:22;19.53;;;5.37;;
5979;SDS011;3016;50.308;8.258;2023-05-20T06:44:23;18.70;;;5.10;;
5979;SDS011;3016;50.308;8.258;2023-05-20T06:47:26;19.80;;;5.80;;
5979;SDS011;3016;50.308;8.258;2023-05-20T06:50:27;24.23;;;6.90;;
5979;SDS011;3016;50.308;8.258;2023-05-20T06:53:28;20.73;;;6.27;;
5979;SDS011;3016;50.308;8.258;2023-05-20T06:56:29;20.20;;;6.03;;
5979;SDS011;3016;50.308;8.258;2023-05-20T06:59:30;20.50;;;6.43;;
5979;SDS011;3016;50.308;8.258;2023-05-20T07:02:32;20.53;;;6.70;;
5979;SDS011;3016;50.308;8.258;2023-05-20T07:05:33;21.23;;;6.07;;
5979;SDS011;3016;50.308;8.258;2023-05-20T07:08:33;20.07;;;6.17;;
5979;SDS011;3016;50.308;8.258;2023-05-20T07:11:34;21.60;;;6.30;;
5979;SDS011;3016;50.308;8.258;2023-05-20T07:14:35;20.50;;;5.67;;
5979;SDS011;3016;50.308;8.258;2023-05-20T07:17:35;21.23;;;7.33;;
5979;SDS011;3016;50.308;8.258;2023-05-20T07:20:37;22.53;;;6.70;;
5979;SDS011;3016;50.308;8.258;2023-05-20T07:23:37;22.60;;;7.10;;
5979;SDS011;3016;50.308;8.258;2023-05-20T07:26:38;23.37;;;6.40;;
5979;SDS011;3016;50.308;8.258;2023-05-20T07:29:39;20.43;;;5.57;;
5979;SDS011;3016;50.308;8.258;2023-05-20T07:32:39;21.50;;;7.57;;
5979;SDS011;3016;50.308;8.258;2023-05-20T07:35:41;24.10;;;7.50;;
5979;SDS011;3016;50.308;8.258;2023-05-20T07:38:42;21.70;;;7.17;;
5979;SDS011;3016;50.308;8.258;2023-05-20T07:41:43;20.53;;;6.40;;
5979;SDS011;3016;50.308;8.258;2023-05-20T07:44:44;21.40;;;6.40;;
5979;SDS011;3016;50.308;8.258;2023-05-20T07:47:44;25.30;;;7.47;;
5979;SDS011;3016;50.308;8.258;2023-05-20T07:50:45;21.67;;;6.93;;
5979;SDS011;3016;50.308;8.258;2023-05-20T07:53:46;21.93;;;7.23;;
5979;SDS011;3016;50.308;8.258;2023-05-20T07:56:47;23.20;;;7.37;;
5979;SDS011;3016;50.308;8.258;2023-05-20T07:59:47;24.40;;;7.17;;
5979;SDS011;3016;50.308;8.258;2023-05-20T08:02:48;22.47;;;6.47;;
5979;SDS011;3016;50.308;8.258;2023-05-20T08:05:50;21.87;;;7.53;;
5979;SDS011;3016;50.308;8.258;2023-05-20T08:08:51;23.13;;;7.93;;
5979;SDS011;3016;50.308;8.258;2023-05-20T08:11:54;21.43;;;7.20;;
5979;SDS011;3016;50.308;8.258;2023-05-20T08:14:55;21.37;;;7.10;;
5979;SDS011;3016;50.308;8.258;2023-05-20T08:17:56;23.37;;;7.40;;
5979;SDS011;3016;50.308;8.258;2023-05-20T08:20:57;22.10;;;7.30;;
5979;SDS011;3016;50.308;8.258;2023-05-20T08:23:58;24.03;;;8.27;;
5979;SDS011;3016;50.308;8.258;2023-05-20T08:26:58;22.90;;;7.70;;
5979;SDS011;3016;50.308;8.258;2023-05-20T08:30:00;26.93;;;9.10;;
5979;SDS011;3016;50.308;8.258;2023-05-20T08:33:01;22.77;;;7.93;;
5979;SDS011;3016;50.308;8.258;2023-05-20T08:36:01;24.90;;;8.37;;
5979;SDS011;3016;50.308;8.258;2023-05-20T08:39:02;21.30;;;7.87;;
5979;SDS011;3016;50.308;8.258;2023-05-20T08:42:03;24.10;;;7.47;;
5979;SDS011;3016;50.308;8.258;2023-05-20T08:45:06;22.30;;;8.03;;
5979;SDS011;3016;50.308;8.258;2023-05-20T08:48:10;22.23;;;8.13;;
5979;SDS011;3016;50.308;8.258;2023-05-20T08:51:11;21.80;;;7.20;;
5979;SDS011;3016;50.308;8.258;2023-05-20T08:54:15;23.87;;;8.30;;
5979;SDS011;3016;50.308;8.258;2023-05-20T08:57:16;26.37;;;8.13;;
5979;SDS011;3016;50.308;8.258;2023-05-20T09:00:19;22.27;;;8.23;;
5979;SDS011;3016;50.308;8.258;2023-05-20T09:03:26;23.30;;;8.67;;
5979;SDS011;3016;50.308;8.258;2023-05-20T09:06:27;22.23;;;7.27;;
5979;SDS011;3016;50.308;8.258;2023-05-20T09:09:29;21.53;;;7.63;;
5979;SDS011;3016;50.308;8.258;2023-05-20T09:12:32;23.43;;;8.93;;
5979;SDS011;3016;50.308;8.258;2023-05-20T09:15:33;26.73;;;8.73;;
5979;SDS011;3016;50.308;8.258;2023-05-20T09:18:38;24.10;;;8.13;;
5979;SDS011;3016;50.308;8.258;2023-05-20T09:21:40;22.60;;;8.40;;
5979;SDS011;3016;50.308;8.258;2023-05-20T09:24:41;23.90;;;8.80;;
5979;SDS011;3016;50.308;8.258;2023-05-20T09:27:42;24.00;;;7.87;;
5979;SDS011;3016;50.308;8.258;2023-05-20T09:30:42;28.13;;;8.30;;
5979;SDS011;3016;50.308;8.258;2023-05-20T09:33:43;24.90;;;8.20;;
5979;SDS011;3016;50.308;8.258;2023-05-20T09:36:44;23.67;;;7.70;;
5979;SDS011;3016;50.308;8.258;2023-05-20T09:43:03;24.27;;;9.37;;
5979;SDS011;3016;50.308;8.258;2023-05-20T09:46:06;32.80;;;8.90;;
5979;SDS011;3016;50.308;8.258;2023-05-20T09:49:08;29.53;;;8.40;;
5979;SDS011;3016;50.308;8.258;2023-05-20T09:52:10;23.83;;;8.53;;
5979;SDS011;3016;50.308;8.258;2023-05-20T09:55:15;23.93;;;8.70;;
5979;SDS011;3016;50.308;8.258;2023-05-20T09:58:21;24.60;;;8.47;;
5979;SDS011;3016;50.308;8.258;2023-05-20T10:01:23;22.43;;;8.80;;
5979;SDS011;3016;50.308;8.258;2023-05-20T10:04:24;24.20;;;9.47;;
5979;SDS011;3016;50.308;8.258;2023-05-20T10:07:42;23.20;;;8.50;;
5979;SDS011;3016;50.308;8.258;2023-05-20T10:15:03;22.47;;;8.70;;
5979;SDS011;3016;50.308;8.258;2023-05-20T10:21:23;21.77;;;9.17;;
5979;SDS011;3016;50.308;8.258;2023-05-20T10:24:33;22.77;;;8.63;;
5979;SDS011;3016;50.308;8.258;2023-05-20T10:27:43;24.63;;;8.73;;
5979;SDS011;3016;50.308;8.258;2023-05-20T10:30:50;23.93;;;9.53;;
5979;SDS011;3016;50.308;8.258;2023-05-20T10:33:51;23.93;;;8.23;;
5979;SDS011;3016;50.308;8.258;2023-05-20T10:40:09;22.70;;;8.40;;
5979;SDS011;3016;50.308;8.258;2023-05-20T10:43:13;22.50;;;8.30;;
5979;SDS011;3016;50.308;8.258;2023-05-20T10:46:18;23.20;;;8.20;;
5979;SDS011;3016;50.308;8.258;2023-05-20T10:49:19;21.13;;;7.20;;
5979;SDS011;3016;50.308;8.258;2023-05-20T10:52:20;21.33;;;7.43;;
5979;SDS011;3016;50.308;8.258;2023-05-20T10:55:21;23.30;;;8.53;;
5979;SDS011;3016;50.308;8.258;2023-05-20T10:58:22;21.63;;;7.10;;
5979;SDS011;3016;50.308;8.258;2023-05-20T11:01:25;22.57;;;8.63;;
5979;SDS011;3016;50.308;8.258;2023-05-20T11:04:26;25.50;;;8.00;;
5979;SDS011;3016;50.308;8.258;2023-05-20T11:07:29;24.60;;;7.83;;
5979;SDS011;3016;50.308;8.258;2023-05-20T11:10:32;23.50;;;8.30;;
5979;SDS011;3016;50.308;8.258;2023-05-20T11:13:34;20.67;;;7.27;;
5979;SDS011;3016;50.308;8.258;2023-05-20T11:16:34;21.43;;;7.33;;
5979;SDS011;3016;50.308;8.258;2023-05-20T11:19:36;21.87;;;7.90;;
5979;SDS011;3016;50.308;8.258;2023-05-20T11:22:38;25.17;;;8.13;;
5979;SDS011;3016;50.308;8.258;2023-05-20T11:25:40;22.87;;;8.10;;
5979;SDS011;3016;50.308;8.258;2023-05-20T11:28:40;23.73;;;7.60;;
5979;SDS011;3016;50.308;8.258;2023-05-20T11:31:41;23.33;;;8.30;;
5979;SDS011;3016;50.308;8.258;2023-05-20T11:34:42;26.60;;;9.20;;
5979;SDS011;3016;50.308;8.258;2023-05-20T11:37:43;23.20;;;8.20;;
5979;SDS011;3016;50.308;8.258;2023-05-20T11:40:50;22.80;;;8.23;;
5979;SDS011;3016;50.308;8.258;2023-05-20T11:43:55;25.63;;;8.70;;
5979;SDS011;3016;50.308;8.258;2023-05-20T11:47:00;26.60;;;8.70;;
5979;SDS011;3016;50.308;8.258;2023-05-20T11:50:02;22.50;;;7.73;;
5979;SDS011;3016;50.308;8.258;2023-05-20T11:53:04;23.27;;;8.23;;
5979;SDS011;3016;50.308;8.258;2023-05-20T11:56:07;22.23;;;7.80;;
5979;SDS011;3016;50.308;8.258;2023-05-20T11:59:08;21.37;;;7.30;;
5979;SDS011;3016;50.308;8.258;2023-05-20T12:02:09;23.23;;;8.40;;
5979;SDS011;3016;50.308;8.258;2023-05-20T12:05:10;23.07;;;8.80;;
5979;SDS011;3016;50.308;8.258;2023-05-20T12:08:11;22.47;;;8.20;;
5979;SDS011;3016;50.308;8.258;2023-05-20T12:11:12;22.87;;;8.30;;
5979;SDS011;3016;50.308;8.258;2023-05-20T12:14:13;24.00;;;8.97;;
5979;SDS011;3016;50.308;8.258;2023-05-20T12:17:13;22.10;;;7.77;;
5979;SDS011;3016;50.308;8.258;2023-05-20T12:20:15;24.90;;;8.20;;
5979;SDS011;3016;50.308;8.258;2023-05-20T12:23:17;22.87;;;7.57;;
5979;SDS011;3016;50.308;8.258;2023-05-20T12:26:17;24.93;;;10.03;;
5979;SDS011;3016;50.308;8.258;2023-05-20T12:29:18;23.33;;;8.70;;
5979;SDS011;3016;50.308;8.258;2023-05-20T12:32:18;24.30;;;9.20;;
5979;SDS011;3016;50.308;8.258;2023-05-20T12:35:23;23.23;;;8.50;;
5979;SDS011;3016;50.308;8.258;2023-05-20T12:38:34;23.70;;;8.40;;
5979;SDS011;3016;50.308;8.258;2023-05-20T12:41:35;22.00;;;7.43;;
5979;SDS011;3016;50.308;8.258;2023-05-20T12:44:36;23.47;;;8.27;;
5979;SDS011;3016;50.308;8.258;2023-05-20T12:47:37;22.77;;;8.90;;
5979;SDS011;3016;50.308;8.258;2023-05-20T12:50:38;24.20;;;8.87;;
5979;SDS011;3016;50.308;8.258;2023-05-20T12:53:38;26.53;;;9.30;;
5979;SDS011;3016;50.308;8.258;2023-05-20T12:56:39;23.57;;;9.37;;
5979;SDS011;3016;50.308;8.258;2023-05-20T12:59:40;26.00;;;8.97;;
5979;SDS011;3016;50.308;8.258;2023-05-20T13:02:41;22.70;;;8.87;;
5979;SDS011;3016;50.308;8.258;2023-05-20T13:05:42;26.23;;;9.30;;
5979;SDS011;3016;50.308;8.258;2023-05-20T13:08:43;24.80;;;8.73;;
5979;SDS011;3016;50.308;8.258;2023-05-20T13:11:44;23.67;;;8.40;;
5979;SDS011;3016;50.308;8.258;2023-05-20T13:14:45;24.57;;;9.13;;
5979;SDS011;3016;50.308;8.258;2023-05-20T13:17:45;23.60;;;8.10;;
5979;SDS011;3016;50.308;8.258;2023-05-20T13:20:46;24.67;;;10.03;;
5979;SDS011;3016;50.308;8.258;2023-05-20T13:23:47;22.30;;;7.83;;
5979;SDS011;3016;50.308;8.258;2023-05-20T13:26:47;24.67;;;9.03;;
5979;SDS011;3016;50.308;8.258;2023-05-20T13:29:48;21.60;;;8.03;;
5979;SDS011;3016;50.308;8.258;2023-05-20T13:32:49;21.60;;;7.60;;
5979;SDS011;3016;50.308;8.258;2023-05-20T13:35:50;23.47;;;8.60;;
5979;SDS011;3016;50.308;8.258;2023-05-20T13:38:51;21.40;;;7.80;;
5979;SDS011;3016;50.308;8.258;2023-05-20T13:41:52;22.63;;;7.67;;
5979;SDS011;3016;50.308;8.258;2023-05-20T13:44:53;23.77;;;8.60;;
5979;SDS011;3016;50.308;8.258;2023-05-20T13:47:54;26.77;;;10.00;;
5979;SDS011;3016;50.308;8.258;2023-05-20T13:50:55;31.13;;;9.93;;
5979;SDS011;3016;50.308;8.258;2023-05-20T13:53:55;24.67;;;8.90;;
5979;SDS011;3016;50.308;8.258;2023-05-20T13:56:56;22.33;;;8.10;;
5979;SDS011;3016;50.308;8.258;2023-05-20T13:59:57;22.20;;;8.00;;
5979;SDS011;3016;50.308;8.258;2023-05-20T14:02:57;23.63;;;8.67;;
5979;SDS011;3016;50.308;8.258;2023-05-20T14:05:59;22.10;;;8.03;;
5979;SDS011;3016;50.308;8.258;2023-05-20T14:09:01;23.40;;;8.50;;
5979;SDS011;3016;50.308;8.258;2023-05-20T14:12:02;27.17;;;9.30;;
5979;SDS011;3016;50.308;8.258;2023-05-20T14:15:04;24.50;;;8.87;;
5979;SDS011;3016;50.308;8.258;2023-05-20T14:18:06;22.70;;;8.87;;
5979;SDS011;3016;50.308;8.258;2023-05-20T14:21:06;22.20;;;8.50;;
5979;SDS011;3016;50.308;8.258;2023-05-20T14:24:07;22.97;;;8.30;;
5979;SDS011;3016;50.308;8.258;2023-05-20T14:27:08;22.87;;;7.87;;
5979;SDS011;3016;50.308;8.258;2023-05-20T14:30:10;24.23;;;8.80;;
5979;SDS011;3016;50.308;8.258;2023-05-20T14:33:11;22.00;;;8.67;;
5979;SDS011;3016;50.308;8.258;2023-05-20T14:36:12;23.43;;;9.00;;
5979;SDS011;3016;50.308;8.258;2023-05-20T14:39:12;24.23;;;8.80;;
5979;SDS011;3016;50.308;8.258;2023-05-20T14:42:13;24.33;;;8.90;;
5979;SDS011;3016;50.308;8.258;2023-05-20T14:45:14;24.27;;;9.13;;
5979;SDS011;3016;50.308;8.258;2023-05-20T14:48:14;25.10;;;8.20;;
5979;SDS011;3016;50.308;8.258;2023-05-20T14:51:15;22.60;;;8.20;;
5979;SDS011;3016;50.308;8.258;2023-05-20T14:54:16;25.53;;;9.00;;
5979;SDS011;3016;50.308;8.258;2023-05-20T14:57:18;24.37;;;9.13;;
5979;SDS011;3016;50.308;8.258;2023-05-20T15:00:19;23.60;;;8.80;;
5979;SDS011;3016;50.308;8.258;2023-05-20T15:03:20;24.90;;;8.77;;
5979;SDS011;3016;50.308;8.258;2023-05-20T15:06:22;21.10;;;7.87;;
5979;SDS011;3016;50.308;8.258;2023-05-20T15:09:23;23.60;;;8.50;;
5979;SDS011;3016;50.308;8.258;2023-05-20T15:12:24;22.67;;;8.30;;
5979;SDS011;3016;50.308;8.258;2023-05-20T15:15:25;23.20;;;9.33;;
5979;SDS011;3016;50.308;8.258;2023-05-20T15:18:25;23.83;;;8.80;;
5979;SDS011;3016;50.308;8.258;2023-05-20T15:21:26;24.00;;;8.00;;
5979;SDS011;3016;50.308;8.258;2023-05-20T15:24:26;26.83;;;8.43;;
5979;SDS011;3016;50.308;8.258;2023-05-20T15:27:27;23.10;;;8.40;;
5979;SDS011;3016;50.308;8.258;2023-05-20T15:30:28;24.43;;;9.07;;
5979;SDS011;3016;50.308;8.258;2023-05-20T15:33:28;23.80;;;9.23;;
5979;SDS011;3016;50.308;8.258;2023-05-20T15:36:29;21.07;;;8.10;;
5979;SDS011;3016;50.308;8.258;2023-05-20T15:39:30;22.73;;;7.43;;
5979;SDS011;3016;50.308;8.258;2023-05-20T15:42:31;24.00;;;8.90;;
5979;SDS011;3016;50.308;8.258;2023-05-20T15:45:32;22.83;;;8.07;;
5979;SDS011;3016;50.308;8.258;2023-05-20T15:48:33;22.77;;;8.20;;
5979;SDS011;3016;50.308;8.258;2023-05-20T15:51:36;22.70;;;8.27;;
5979;SDS011;3016;50.308;8.258;2023-05-20T15:54:38;23.83;;;8.53;;
5979;SDS011;3016;50.308;8.258;2023-05-20T15:57:38;22.57;;;8.63;;
5979;SDS011;3016;50.308;8.258;2023-05-20T16:00:39;22.97;;;9.20;;
5979;SDS011;3016;50.308;8.258;2023-05-20T16:03:40;25.07;;;8.93;;
5979;SDS011;3016;50.308;8.258;2023-05-20T16:06:42;23.93;;;9.33;;
5979;SDS011;3016;50.308;8.258;2023-05-20T16:09:43;22.57;;;8.70;;
5979;SDS011;3016;50.308;8.258;2023-05-20T16:12:43;23.93;;;8.27;;
5979;SDS011;3016;50.308;8.258;2023-05-20T16:15:45;30.30;;;9.90;;
5979;SDS011;3016;50.308;8.258;2023-05-20T16:18:46;22.43;;;8.50;;
5979;SDS011;3016;50.308;8.258;2023-05-20T16:21:46;26.53;;;8.60;;
5979;SDS011;3016;50.308;8.258;2023-05-20T16:24:47;24.10;;;8.47;;
5979;SDS011;3016;50.308;8.258;2023-05-20T16:27:48;25.90;;;9.70;;
5979;SDS011;3016;50.308;8.258;2023-05-20T16:30:49;25.10;;;9.20;;
5979;SDS011;3016;50.308;8.258;2023-05-20T16:33:50;25.33;;;9.03;;
5979;SDS011;3016;50.308;8.258;2023-05-20T16:36:50;22.13;;;7.70;;
5979;SDS011;3016;50.308;8.258;2023-05-20T16:39:51;24.17;;;9.00;;
5979;SDS011;3016;50.308;8.258;2023-05-20T16:42:52;28.10;;;8.27;;
5979;SDS011;3016;50.308;8.258;2023-05-20T16:45:52;22.80;;;8.77;;
5979;SDS011;3016;50.308;8.258;2023-05-20T16:48:53;21.43;;;7.50;;
5979;SDS011;3016;50.308;8.258;2023-05-20T16:51:54;23.87;;;8.13;;
5979;SDS011;3016;50.308;8.258;2023-05-20T16:54:55;24.70;;;9.00;;
5979;SDS011;3016;50.308;8.258;2023-05-20T16:58:01;24.93;;;10.30;;
5979;SDS011;3016;50.308;8.258;2023-05-20T17:01:01;24.97;;;9.53;;
5979;SDS011;3016;50.308;8.258;2023-05-20T17:04:03;23.37;;;8.30;;
5979;SDS011;3016;50.308;8.258;2023-05-20T17:07:04;22.07;;;7.70;;
5979;SDS011;3016;50.308;8.258;2023-05-20T17:10:08;25.50;;;10.77;;
5979;SDS011;3016;50.308;8.258;2023-05-20T17:13:09;23.10;;;9.00;;
5979;SDS011;3016;50.308;8.258;2023-05-20T17:16:10;25.57;;;9.90;;
5979;SDS011;3016;50.308;8.258;2023-05-20T17:19:11;25.83;;;9.63;;
5979;SDS011;3016;50.308;8.258;2023-05-20T17:22:11;25.97;;;10.13;;
5979;SDS011;3016;50.308;8.258;2023-05-20T17:25:12;25.50;;;10.30;;
5979;SDS011;3016;50.308;8.258;2023-05-20T17:28:13;25.20;;;10.80;;
5979;SDS011;3016;50.308;8.258;2023-05-20T17:31:13;23.43;;;9.60;;
5979;SDS011;3016;50.308;8.258;2023-05-20T17:34:14;24.90;;;9.53;;
5979;SDS011;3016;50.308;8.258;2023-05-20T17:37:15;26.10;;;9.73;;
5979;SDS011;3016;50.308;8.258;2023-05-20T17:40:16;25.40;;;10.10;;
5979;SDS011;3016;50.308;8.258;2023-05-20T17:43:17;26.63;;;9.80;;
5979;SDS011;3016;50.308;8.258;2023-05-20T17:46:18;25.77;;;9.30;;
5979;SDS011;3016;50.308;8.258;2023-05-20T17:49:19;30.27;;;9.77;;
5979;SDS011;3016;50.308;8.258;2023-05-20T17:52:20;29.30;;;10.27;;
5979;SDS011;3016;50.308;8.258;2023-05-20T17:55:20;24.40;;;10.00;;
5979;SDS011;3016;50.308;8.258;2023-05-20T17:58:21;30.33;;;10.40;;
5979;SDS011;3016;50.308;8.258;2023-05-20T18:01:23;26.10;;;10.00;;
5979;SDS011;3016;50.308;8.258;2023-05-20T18:04:25;26.77;;;9.23;;
5979;SDS011;3016;50.308;8.258;2023-05-20T18:07:26;25.47;;;10.17;;
5979;SDS011;3016;50.308;8.258;2023-05-20T18:10:29;30.10;;;10.63;;
5979;SDS011;3016;50.308;8.258;2023-05-20T18:13:29;25.10;;;10.40;;
5979;SDS011;3016;50.308;8.258;2023-05-20T18:16:30;25.90;;;10.60;;
5979;SDS011;3016;50.308;8.258;2023-05-20T18:19:31;26.73;;;10.53;;
5979;SDS011;3016;50.308;8.258;2023-05-20T18:22:32;27.83;;;11.07;;
5979;SDS011;3016;50.308;8.258;2023-05-20T18:25:33;27.97;;;12.77;;
5979;SDS011;3016;50.308;8.258;2023-05-20T18:28:33;26.83;;;10.73;;
5979;SDS011;3016;50.308;8.258;2023-05-20T18:31:34;27.63;;;10.20;;
5979;SDS011;3016;50.308;8.258;2023-05-20T18:34:35;28.50;;;12.27;;
5979;SDS011;3016;50.308;8.258;2023-05-20T18:37:36;33.50;;;12.97;;
5979;SDS011;3016;50.308;8.258;2023-05-20T18:40:37;30.60;;;11.50;;
5979;SDS011;3016;50.308;8.258;2023-05-20T18:43:37;26.67;;;10.77;;